Time;durP1;ratioP1;P1;durP2;ratioP2;P2;SDS_P1;SDS_P2;PMS_P1;PMS_P2;Temp;Humidity;BMP_temperature;BMP_pressure;BME280_temperature;BME280_humidity;BME280_pressure;Samples;Min_cycle;Max_cycle;Signal;HPM_P1;HPM_P2
2022/07/04 00:00:18;;;;;;;13.50;6.90;;;;;;;21.99;44.42;99524.48;25030;1315;3030333;-62
2022/07/04 00:02:48;;;;;;;17.80;7.70;;;;;;;21.95;44.67;99523.64;25074;1315;3028795;-61
2022/07/04 00:05:17;;;;;;;12.00;6.70;;;;;;;21.93;44.56;99527.95;25020;1316;3026877;-60
2022/07/04 00:07:48;;;;;;;11.50;6.40;;;;;;;21.90;44.70;99525.06;25110;1316;3027268;-61
2022/07/04 00:10:18;;;;;;;15.70;6.80;;;;;;;21.85;44.75;99524.92;25081;1315;3026692;-60
2022/07/04 00:12:50;;;;;;;10.60;6.20;;;;;;;21.77;45.18;99521.67;25042;1316;3026746;-61
2022/07/04 00:15:19;;;;;;;16.10;5.60;;;;;;;21.73;45.27;99522.80;25019;1315;3027504;-62
2022/07/04 00:17:48;;;;;;;15.10;5.90;;;;;;;21.74;45.19;99519.50;25110;1314;3026375;-61
2022/07/04 00:20:20;;;;;;;9.80;5.30;;;;;;;21.72;45.00;99522.13;25199;1316;3057111;-61
2022/07/04 00:22:49;;;;;;;12.80;4.80;;;;;;;21.72;45.25;99524.00;25047;1315;3026538;-61
2022/07/04 00:25:18;;;;;;;15.70;5.60;;;;;;;21.70;45.43;99526.86;25066;1316;3055193;-60
2022/07/04 00:27:49;;;;;;;13.70;5.40;;;;;;;21.66;45.46;99524.42;25063;1316;3026887;-59
2022/07/04 00:30:17;;;;;;;11.80;4.20;;;;;;;21.67;45.39;99526.30;25069;1316;3026400;-59
2022/07/04 00:32:47;;;;;;;14.70;5.70;;;;;;;21.65;45.51;99527.42;25091;1315;3052396;-60
2022/07/04 00:35:16;;;;;;;12.30;4.80;;;;;;;21.63;45.48;99521.17;25005;1316;3028336;-60
2022/07/04 00:37:46;;;;;;;10.60;4.30;;;;;;;21.62;45.41;99521.44;25107;1315;3026278;-59
2022/07/04 00:40:15;;;;;;;11.60;4.90;;;;;;;21.61;45.80;99526.91;25081;1316;3054893;-60
2022/07/04 00:42:43;;;;;;;9.30;4.80;;;;;;;21.57;45.85;99521.94;25062;1315;3026523;-59
2022/07/04 00:45:12;;;;;;;14.30;6.20;;;;;;;21.55;45.86;99525.56;25096;1316;3054134;-61
2022/07/04 00:47:41;;;;;;;20.60;6.70;;;;;;;21.51;46.10;99530.74;25056;1316;3026711;-61
2022/07/04 00:50:10;;;;;;;16.30;7.20;;;;;;;21.44;46.41;99526.10;25086;1316;3051497;-61
2022/07/04 00:52:39;;;;;;;19.00;8.00;;;;;;;21.42;46.81;99526.23;25101;1316;3026795;-60
2022/07/04 00:55:09;;;;;;;26.40;9.80;;;;;;;21.40;46.76;99526.02;25064;1316;3071078;-60
2022/07/04 00:57:38;;;;;;;22.20;7.60;;;;;;;21.37;46.94;99524.04;25114;1315;3026809;-59
2022/07/04 01:00:08;;;;;;;13.40;7.10;;;;;;;21.36;47.29;99528.28;25045;1315;3026759;-60
2022/07/04 01:02:38;;;;;;;18.50;8.30;;;;;;;21.35;47.47;99527.61;25076;1316;3071152;-60
2022/07/04 01:05:07;;;;;;;13.40;6.00;;;;;;;21.34;47.43;99522.02;25064;1316;3027023;-61
2022/07/04 01:07:36;;;;;;;13.90;5.90;;;;;;;21.36;47.55;99522.16;25085;1315;3054397;-61
2022/07/04 01:10:06;;;;;;;11.60;6.00;;;;;;;21.40;47.56;99517.48;25015;1316;3026713;-60
2022/07/04 01:12:35;;;;;;;12.20;6.80;;;;;;;21.39;47.56;99519.35;25038;1316;3027522;-60
2022/07/04 01:15:06;;;;;;;27.50;11.30;;;;;;;21.38;47.62;99519.33;25088;1315;3026526;-62
2022/07/04 01:17:35;;;;;;;23.20;10.90;;;;;;;21.40;47.40;99518.23;25036;1315;3069371;-60
2022/07/04 01:20:06;;;;;;;26.20;10.30;;;;;;;21.42;47.16;99521.77;25072;1315;3026623;-60
2022/07/04 01:22:35;;;;;;;15.20;8.40;;;;;;;21.39;47.11;99519.00;25046;1315;3050565;-58
2022/07/04 01:25:05;;;;;;;18.40;9.70;;;;;;;21.40;47.12;99525.28;25078;1315;3026504;-61
2022/07/04 01:27:34;;;;;;;33.80;16.70;;;;;;;21.41;46.88;99526.33;25098;1315;3053318;-59
2022/07/04 01:30:03;;;;;;;34.50;19.60;;;;;;;21.39;46.88;99527.52;25049;1315;3026196;-60
2022/07/04 01:32:33;;;;;;;44.20;24.20;;;;;;;21.37;47.03;99527.48;25054;1315;3052546;-60
2022/07/04 01:35:02;;;;;;;25.40;15.70;;;;;;;21.39;47.19;99523.48;25083;1315;3026438;-61
2022/07/04 01:37:31;;;;;;;27.20;16.80;;;;;;;21.38;47.29;99525.75;25051;1316;3057905;-60
2022/07/04 01:40:01;;;;;;;23.80;15.60;;;;;;;21.39;47.38;99529.36;25018;1316;3026474;-61
2022/07/04 01:42:31;;;;;;;15.30;9.10;;;;;;;21.38;47.20;99530.33;25029;1316;3027711;-59
2022/07/04 01:45:03;;;;;;;13.40;7.10;;;;;;;21.35;47.35;99529.24;25107;1315;3026973;-60
2022/07/04 01:47:32;;;;;;;26.10;11.90;;;;;;;21.33;47.41;99533.35;25083;1316;3026618;-61
2022/07/04 01:50:02;;;;;;;8.50;4.60;;;;;;;21.28;47.57;99528.55;25023;1315;3026695;-60
2022/07/04 01:52:31;;;;;;;5.00;3.00;;;;;;;21.27;47.37;99533.48;25024;1315;3054937;-61
2022/07/04 01:55:01;;;;;;;6.30;3.50;;;;;;;21.22;47.77;99536.34;25054;1315;3026722;-61
2022/07/04 01:57:30;;;;;;;9.30;4.00;;;;;;;21.14;47.97;99538.77;25064;1316;3026352;-62
2022/07/04 02:02:47;;;;;;;9.20;4.00;;;;;;;21.13;48.12;99539.16;25040;1315;3071388;-61
2022/07/04 02:05:16;;;;;;;9.10;4.00;;;;;;;21.11;48.06;99542.23;25000;1318;3025976;-62
2022/07/04 02:07:45;;;;;;;14.00;5.40;;;;;;;21.17;48.06;99538.32;25037;1315;3051913;-59
2022/07/04 02:10:14;;;;;;;18.00;7.20;;;;;;;21.16;48.22;99537.95;25076;1316;3026498;-62
2022/07/04 02:13:02;;;;;;;23.70;12.60;;;;;;;21.16;48.35;99540.88;25118;1315;3055334;-61
2022/07/04 02:15:35;;;;;;;19.10;9.10;;;;;;;21.12;48.76;99538.41;25007;1316;3053485;-63
2022/07/04 02:18:06;;;;;;;17.10;8.20;;;;;;;21.13;48.78;99542.35;25009;1315;3069711;-61
2022/07/04 02:20:35;;;;;;;10.60;7.70;;;;;;;21.14;48.88;99542.29;25046;1315;3026895;-61
2022/07/04 02:23:05;;;;;;;13.80;8.00;;;;;;;21.09;49.28;99543.49;25084;1315;3026587;-62
2022/07/04 02:25:35;;;;;;;11.70;7.20;;;;;;;21.09;49.16;99544.56;25039;1315;3070793;-62
2022/07/04 02:28:08;;;;;;;12.80;8.50;;;;;;;21.09;49.42;99546.56;25077;1316;3026823;-60
2022/07/04 02:30:40;;;;;;;12.60;6.40;;;;;;;21.11;49.38;99544.56;25082;1315;3026843;-60
2022/07/04 02:33:09;;;;;;;11.90;7.90;;;;;;;21.09;49.46;99542.30;25006;1315;3026614;-59
2022/07/04 02:35:38;;;;;;;12.40;8.80;;;;;;;21.08;49.80;99544.88;25089;1315;3026784;-60
2022/07/04 02:38:07;;;;;;;13.60;9.40;;;;;;;21.04;49.83;99545.11;25011;1315;3054842;-59
2022/07/04 02:40:36;;;;;;;12.60;7.60;;;;;;;21.09;49.74;99545.66;25063;1315;3026174;-61
2022/07/04 02:43:05;;;;;;;11.60;7.00;;;;;;;21.12;49.62;99548.88;25032;1315;3050948;-59
2022/07/04 02:45:34;;;;;;;9.30;7.30;;;;;;;21.18;49.55;99551.17;25071;1315;3026493;-60
2022/07/04 02:48:03;;;;;;;11.40;6.90;;;;;;;21.17;49.55;99550.91;24990;1315;3070570;-61
2022/07/04 02:50:32;;;;;;;12.40;6.20;;;;;;;21.17;49.67;99551.60;25102;1315;3026162;-59
2022/07/04 02:53:01;;;;;;;16.20;9.50;;;;;;;21.14;49.73;99556.00;25028;1315;3054617;-59
2022/07/04 02:55:30;;;;;;;11.60;7.40;;;;;;;21.17;49.84;99557.35;25091;1315;3026397;-59
2022/07/04 02:57:59;;;;;;;14.20;9.00;;;;;;;21.21;49.44;99552.23;25015;1315;3052653;-59
2022/07/04 03:00:28;;;;;;;17.80;9.90;;;;;;;21.25;49.36;99552.58;25093;1315;3026610;-60
2022/07/04 03:02:57;;;;;;;15.00;8.30;;;;;;;21.30;49.48;99552.77;25037;1315;3049712;-60
2022/07/04 03:05:28;;;;;;;15.40;9.50;;;;;;;21.34;49.05;99553.73;25102;1315;3028671;-58
2022/07/04 03:07:57;;;;;;;8.20;5.60;;;;;;;21.40;49.11;99553.34;25015;1315;3058219;-61
2022/07/04 03:10:27;;;;;;;12.00;6.50;;;;;;;21.47;48.94;99549.20;25083;1315;3026888;-60
2022/07/04 03:12:56;;;;;;;12.10;6.30;;;;;;;21.52;49.02;99550.96;25012;1315;3026305;-61
2022/07/04 03:15:25;;;;;;;9.10;6.50;;;;;;;21.57;48.68;99550.86;25006;1315;3056972;-60
2022/07/04 03:17:57;;;;;;;11.10;6.10;;;;;;;21.57;48.98;99553.90;24943;1315;3026703;-59
2022/07/04 03:20:26;;;;;;;9.90;5.40;;;;;;;21.57;48.77;99552.23;25036;1315;3026699;-60
2022/07/04 03:22:56;;;;;;;13.00;4.90;;;;;;;21.62;48.80;99555.12;25029;1315;3058029;-59
2022/07/04 03:25:27;;;;;;;8.90;4.80;;;;;;;21.65;48.61;99552.71;25039;1315;3026270;-59
2022/07/04 03:27:59;;;;;;;14.10;5.60;;;;;;;21.66;48.73;99551.92;24992;1315;3027485;-59
2022/07/04 03:30:28;;;;;;;9.10;4.90;;;;;;;21.64;48.96;99553.91;25080;1315;3026378;-59
2022/07/04 03:32:58;;;;;;;16.70;9.10;;;;;;;21.69;49.02;99556.58;25056;1315;3048384;-59
2022/07/04 03:35:26;;;;;;;19.90;9.10;;;;;;;21.74;49.24;99555.63;25062;1315;3026936;-60
2022/07/04 03:37:55;;;;;;;21.30;10.30;;;;;;;21.82;48.99;99555.70;25048;1315;3055411;-60
2022/07/04 03:40:28;;;;;;;26.40;16.70;;;;;;;21.85;48.96;99561.80;25031;1315;3026494;-59
2022/07/04 03:42:58;;;;;;;32.60;16.30;;;;;;;21.91;49.14;99555.85;25036;1315;3054663;-58
2022/07/04 03:45:27;;;;;;;39.00;17.90;;;;;;;21.89;48.94;99558.86;25031;1316;3027777;-59
2022/07/04 03:47:56;;;;;;;22.30;12.00;;;;;;;21.88;49.29;99553.23;25138;1315;3026823;-61
2022/07/04 03:50:25;;;;;;;22.40;12.90;;;;;;;21.90;49.51;99558.63;25016;1315;3051931;-60
2022/07/04 03:52:54;;;;;;;16.80;10.00;;;;;;;21.88;49.78;99557.23;25083;1315;3026065;-61
2022/07/04 03:55:23;;;;;;;19.90;10.30;;;;;;;21.93;49.63;99557.57;25049;1315;3026372;-58
2022/07/04 03:57:52;;;;;;;23.60;11.20;;;;;;;21.89;49.41;99557.07;25073;1316;3054531;-60
2022/07/04 04:00:21;;;;;;;21.90;11.00;;;;;;;21.88;49.80;99552.40;25052;1316;3026294;-61
2022/07/04 04:02:50;;;;;;;17.30;8.40;;;;;;;21.86;50.39;99550.80;25145;1316;3054186;-59
2022/07/04 04:05:30;;;;;;;18.30;8.50;;;;;;;21.80;50.63;99556.67;25063;1315;3026593;-60
2022/07/04 04:08:00;;;;;;;12.50;7.00;;;;;;;21.77;50.92;99553.92;25011;1315;3052240;-59
2022/07/04 04:10:31;;;;;;;18.90;8.80;;;;;;;21.79;50.59;99552.80;25039;1315;3026395;-58
2022/07/04 04:13:01;;;;;;;18.30;8.70;;;;;;;21.81;50.45;99552.09;25060;1315;3026878;-59
2022/07/04 04:15:30;;;;;;;16.30;7.30;;;;;;;21.80;50.50;99550.52;25041;1315;3026787;-62
2022/07/04 04:18:01;;;;;;;12.50;7.80;;;;;;;21.86;50.49;99552.10;25014;1315;3026483;-60
2022/07/04 04:20:29;;;;;;;13.40;7.40;;;;;;;21.88;50.63;99556.09;24985;1315;3028756;-60
2022/07/04 04:22:58;;;;;;;13.30;7.40;;;;;;;21.89;50.71;99551.77;25059;1315;3057897;-61
2022/07/04 04:25:27;;;;;;;16.90;7.40;;;;;;;21.88;50.84;99550.77;25067;1315;3026425;-61
2022/07/04 04:27:57;;;;;;;15.50;7.00;;;;;;;21.92;51.00;99547.98;25026;1315;3054794;-64
2022/07/04 04:30:26;;;;;;;15.70;7.00;;;;;;;22.01;50.95;99550.09;25093;1315;3028215;-63
2022/07/04 04:32:56;;;;;;;12.50;7.30;;;;;;;22.10;50.90;99545.39;25069;1315;3053686;-60
2022/07/04 04:35:25;;;;;;;13.30;7.70;;;;;;;22.23;50.73;99548.30;25010;1315;3026919;-61
2022/07/04 04:37:54;;;;;;;14.50;7.70;;;;;;;22.35;50.62;99548.97;25052;1315;3026619;-61
2022/07/04 04:40:23;;;;;;;18.30;7.70;;;;;;;22.39;50.17;99549.63;25005;1315;3054586;-61
2022/07/04 04:42:52;;;;;;;12.40;7.20;;;;;;;22.49;50.14;99549.27;25079;1315;3026904;-61
2022/07/04 04:45:22;;;;;;;18.20;6.60;;;;;;;22.61;50.10;99547.55;25030;1315;3051708;-61
2022/07/04 04:47:53;;;;;;;11.10;6.30;;;;;;;22.72;49.76;99547.64;25000;1315;3026477;-61
2022/07/04 04:50:22;;;;;;;14.70;6.20;;;;;;;22.85;49.52;99545.27;25115;1315;3071281;-61
2022/07/04 04:52:51;;;;;;;13.10;6.60;;;;;;;22.94;49.11;99544.71;25002;1315;3026780;-60
2022/07/04 04:55:20;;;;;;;16.50;6.70;;;;;;;23.01;48.89;99547.01;25081;1315;3054225;-64
2022/07/04 04:57:51;;;;;;;11.90;6.50;;;;;;;23.08;49.11;99546.01;25053;1316;3026277;-62
2022/07/04 05:00:20;;;;;;;11.60;6.10;;;;;;;23.12;48.75;99544.27;25081;1315;3027076;-61
2022/07/04 05:02:49;;;;;;;14.50;7.00;;;;;;;23.10;48.78;99546.44;25055;1318;3054129;-62
2022/07/04 05:05:18;;;;;;;12.10;6.20;;;;;;;23.16;49.25;99546.72;25059;1315;3026660;-61
2022/07/04 05:07:47;;;;;;;15.10;6.70;;;;;;;23.25;49.03;99547.48;25054;1315;3054811;-61
2022/07/04 05:10:16;;;;;;;14.20;4.60;;;;;;;23.32;49.26;99551.14;25082;1315;3026496;-60
2022/07/04 05:13:01;;;;;;;10.50;4.80;;;;;;;23.33;48.91;99552.48;25070;1315;3068709;-60
2022/07/04 05:15:30;;;;;;;17.70;5.20;;;;;;;23.34;48.83;99551.14;25149;1315;3026480;-61
2022/07/04 05:18:00;;;;;;;9.70;4.30;;;;;;;23.34;49.23;99557.57;25044;1315;3026385;-61
2022/07/04 05:20:29;;;;;;;8.20;4.50;;;;;;;23.46;49.09;99552.62;25060;1315;3026427;-61
2022/07/04 05:22:58;;;;;;;7.20;3.10;;;;;;;23.57;48.66;99551.06;24677;1315;3537241;-61
2022/07/04 05:25:27;;;;;;;7.90;3.10;;;;;;;23.66;48.34;99550.58;25092;1315;3026496;-61
2022/07/04 05:27:56;;;;;;;10.50;3.80;;;;;;;23.70;48.11;99551.50;25038;1315;3070408;-62
2022/07/04 05:30:25;;;;;;;12.60;3.60;;;;;;;23.71;48.16;99553.40;25096;1315;3026822;-60
2022/07/04 05:32:54;;;;;;;9.50;3.10;;;;;;;23.82;48.09;99551.79;25090;1315;3051363;-62
2022/07/04 05:35:24;;;;;;;9.80;3.60;;;;;;;23.91;48.08;99554.56;25030;1315;3026835;-63
2022/07/04 05:37:54;;;;;;;11.40;3.60;;;;;;;23.94;47.99;99550.40;25100;1315;3052512;-63
2022/07/04 05:40:23;;;;;;;10.00;3.30;;;;;;;24.04;47.73;99551.42;25073;1315;3027123;-64
2022/07/04 05:42:52;;;;;;;8.10;3.90;;;;;;;24.18;47.62;99550.88;25054;1315;3048634;-61
2022/07/04 05:45:21;;;;;;;12.00;3.50;;;;;;;24.31;47.40;99545.61;25030;1315;3026928;-60
2022/07/04 05:47:50;;;;;;;13.80;3.30;;;;;;;24.27;47.40;99541.70;25111;1315;3056097;-60
2022/07/04 05:50:19;;;;;;;12.40;3.50;;;;;;;24.39;47.14;99539.63;25052;1315;3027085;-62
2022/07/04 05:52:49;;;;;;;6.10;3.20;;;;;;;24.51;46.39;99543.85;25082;1315;3054978;-60
2022/07/04 05:55:18;;;;;;;8.60;3.50;;;;;;;24.53;46.35;99541.42;25129;1315;3026946;-63
2022/07/04 05:57:47;;;;;;;5.50;3.20;;;;;;;24.52;45.74;99545.05;25032;1315;3026662;-61
2022/07/04 06:00:16;;;;;;;11.90;3.60;;;;;;;24.51;46.38;99540.70;25121;1315;3055136;-63
2022/07/04 06:02:45;;;;;;;8.40;3.40;;;;;;;24.59;46.17;99538.87;25014;1316;3026644;-61
2022/07/04 06:05:14;;;;;;;6.80;2.90;;;;;;;24.72;45.95;99535.92;25081;1315;3026963;-61
2022/07/04 06:07:43;;;;;;;9.10;3.00;;;;;;;24.88;45.36;99532.27;25047;1315;3051757;-61
2022/07/04 06:10:12;;;;;;;7.60;3.10;;;;;;;24.98;44.88;99530.17;25083;1315;3026433;-61
2022/07/04 06:12:42;;;;;;;9.00;3.20;;;;;;;24.88;44.30;99530.65;25051;1315;3055089;-61
2022/07/04 06:15:11;;;;;;;9.50;3.30;;;;;;;24.89;44.27;99530.88;25037;1315;3026416;-61
2022/07/04 06:17:41;;;;;;;8.70;3.60;;;;;;;24.96;44.30;99532.25;25080;1315;3051741;-61
2022/07/04 06:20:11;;;;;;;12.30;3.10;;;;;;;25.01;44.28;99530.17;25089;1315;3026557;-63
2022/07/04 06:22:44;;;;;;;12.90;3.00;;;;;;;25.13;44.05;99535.55;25054;1315;3026335;-62
2022/07/04 06:25:19;;;;;;;11.30;3.20;;;;;;;25.22;43.91;99534.30;25056;1315;3058817;-63
2022/07/04 06:27:48;;;;;;;10.00;3.10;;;;;;;25.30;43.95;99526.34;25116;1315;3050530;-61
2022/07/04 06:30:20;;;;;;;6.30;3.40;;;;;;;25.45;43.72;99527.72;25168;1315;3026962;-62
2022/07/04 06:32:54;;;;;;;4.90;3.20;;;;;;;25.50;43.09;99525.91;25045;1315;3026919;-63
2022/07/04 06:38:23;;;;;;;8.30;3.00;;;;;;;25.47;43.28;99531.13;25080;1315;3051922;-61
2022/07/04 06:40:54;;;;;;;4.30;2.70;;;;;;;25.47;43.07;99527.48;25091;1315;3055007;-62
2022/07/04 06:43:24;;;;;;;9.20;2.90;;;;;;;25.56;43.07;99532.48;25100;1315;3026419;-61
2022/07/04 06:48:42;;;;;;;16.10;3.50;;;;;;;25.60;43.19;99524.46;31576;1315;3026158;-61
2022/07/04 06:51:13;;;;;;;7.10;3.80;;;;;;;25.90;42.28;99524.15;25043;1316;3026461;-62
2022/07/04 06:53:42;;;;;;;10.60;3.40;;;;;;;26.10;41.49;99523.53;25074;1316;3030644;-60
2022/07/04 06:56:11;;;;;;;14.90;2.90;;;;;;;26.14;41.96;99520.55;25029;1316;3026748;-64
2022/07/04 06:58:41;;;;;;;9.90;3.40;;;;;;;26.19;41.92;99519.15;25050;1315;3027143;-61
2022/07/04 07:01:10;;;;;;;9.10;2.90;;;;;;;26.17;41.78;99524.09;24825;1316;3026549;-62
2022/07/04 07:03:39;;;;;;;8.70;3.60;;;;;;;26.04;41.80;99521.23;25111;1313;3055195;-62
2022/07/04 07:06:12;;;;;;;12.50;3.30;;;;;;;26.06;41.88;99520.37;25107;1313;3051743;-62
2022/07/04 07:08:43;;;;;;;7.20;3.50;;;;;;;26.00;41.41;99522.42;25090;1313;3027679;-62
2022/07/04 07:11:12;;;;;;;10.10;3.70;;;;;;;26.03;41.69;99526.22;25142;1313;3026772;-62
2022/07/04 07:13:43;;;;;;;7.10;3.60;;;;;;;26.11;41.87;99520.52;25092;1313;3054249;-62
2022/07/04 07:16:12;;;;;;;10.20;3.70;;;;;;;26.20;41.82;99518.75;25093;1315;3026745;-62
2022/07/04 07:18:42;;;;;;;11.20;3.80;;;;;;;26.35;41.45;99521.73;25049;1313;3026676;-61
2022/07/04 07:21:11;;;;;;;17.60;3.70;;;;;;;26.48;40.98;99521.83;25033;1313;3052356;-61
2022/07/04 07:23:40;;;;;;;8.00;4.00;;;;;;;26.57;40.70;99522.59;25059;1313;3026841;-62
2022/07/04 07:26:10;;;;;;;9.00;3.80;;;;;;;26.74;40.74;99523.04;25062;1315;3058147;-62
2022/07/04 07:28:40;;;;;;;19.40;4.30;;;;;;;26.84;40.54;99520.11;25105;1315;3026501;-61
2022/07/04 07:31:09;;;;;;;6.00;3.40;;;;;;;26.87;39.83;99522.31;25051;1314;3026477;-62
2022/07/04 07:33:39;;;;;;;8.50;3.80;;;;;;;26.96;40.11;99518.70;25125;1313;3058446;-62
2022/07/04 07:36:08;;;;;;;7.40;3.60;;;;;;;26.89;40.28;99526.44;25075;1313;3026422;-61
2022/07/04 07:38:37;;;;;;;12.20;4.20;;;;;;;26.97;40.45;99524.25;25107;1314;3051757;-63
2022/07/04 07:41:10;;;;;;;12.80;3.90;;;;;;;27.02;40.10;99523.53;25167;1313;3026474;-62
2022/07/04 07:43:43;;;;;;;12.60;4.30;;;;;;;27.10;40.50;99522.58;25328;1313;3051350;-62
2022/07/04 07:46:12;;;;;;;10.00;3.70;;;;;;;27.24;40.25;99514.72;25096;1315;3026512;-63
2022/07/04 07:48:41;;;;;;;7.40;3.80;;;;;;;27.43;40.08;99517.21;25047;1313;3051560;-61
2022/07/04 07:51:15;;;;;;;8.60;4.00;;;;;;;27.48;39.63;99517.83;25090;1313;3026928;-61
2022/07/04 07:53:44;;;;;;;7.90;3.70;;;;;;;27.55;39.63;99513.04;25058;1313;3026576;-63
2022/07/04 07:56:13;;;;;;;9.60;3.80;;;;;;;27.61;39.45;99513.14;25174;1313;3026448;-63
2022/07/04 07:58:42;;;;;;;8.30;3.80;;;;;;;27.63;38.70;99512.44;25123;1316;3054129;-61
2022/07/04 08:01:11;;;;;;;9.90;3.60;;;;;;;27.71;38.15;99514.73;25052;1313;3026842;-62
2022/07/04 08:06:30;;;;;;;10.70;3.90;;;;;;;28.01;38.16;99511.77;25054;1313;3054590;-62
2022/07/04 08:08:59;;;;;;;9.40;3.80;;;;;;;28.11;37.85;99508.52;25081;1313;3026470;-62
2022/07/04 08:11:28;;;;;;;17.00;3.80;;;;;;;28.14;37.75;99507.27;25138;1313;3047582;-61
2022/07/04 08:13:59;;;;;;;10.20;4.00;;;;;;;28.17;37.59;99508.40;25072;1315;3026311;-61
2022/07/04 08:16:28;;;;;;;9.60;4.10;;;;;;;27.92;37.30;99510.50;25103;1313;3026679;-62
2022/07/04 08:18:57;;;;;;;7.70;4.30;;;;;;;27.94;37.20;99509.01;25048;1313;3048684;-62
2022/07/04 08:21:26;;;;;;;7.80;4.10;;;;;;;28.04;36.36;99505.82;25101;1313;3026121;-62
2022/07/04 08:23:56;;;;;;;6.10;4.10;;;;;;;28.13;36.13;99504.63;25038;1313;3071247;-61
2022/07/04 08:26:25;;;;;;;8.10;4.40;;;;;;;28.33;36.29;99501.95;25085;1313;3026778;-63
2022/07/04 08:28:57;;;;;;;6.30;4.30;;;;;;;28.38;36.60;99505.85;25100;1313;3053487;-61
2022/07/04 08:31:27;;;;;;;12.30;4.20;;;;;;;28.49;36.56;99507.48;25070;1313;3031107;-63
2022/07/04 08:33:57;;;;;;;8.60;4.00;;;;;;;28.51;35.43;99506.84;25073;1313;3026434;-62
2022/07/04 08:36:26;;;;;;;7.60;3.10;;;;;;;28.65;35.62;99501.02;25077;1315;3027388;-62
2022/07/04 08:38:55;;;;;;;7.90;3.90;;;;;;;28.85;35.40;99500.23;25029;1318;3026773;-62
2022/07/04 08:41:24;;;;;;;12.30;3.90;;;;;;;28.91;34.80;99496.78;25110;1315;3048855;-63
2022/07/04 08:43:53;;;;;;;7.00;4.00;;;;;;;28.72;34.52;99496.27;25042;1313;3027718;-63
2022/07/04 08:46:47;;;;;;;11.10;3.90;;;;;;;28.82;34.94;99492.69;25014;1313;3070435;-62
2022/07/04 08:49:23;;;;;;;8.00;4.10;;;;;;;28.79;35.03;99494.52;25087;1313;3026579;-65
2022/07/04 08:51:59;;;;;;;12.10;4.20;;;;;;;28.93;34.59;99487.90;25134;1313;3053722;-64
2022/07/04 09:00:15;;;;;;;8.20;4.00;;;;;;;29.09;34.58;99486.41;24938;1318;3053147;-64
2022/07/04 09:02:44;;;;;;;9.50;4.50;;;;;;;29.05;34.47;99479.84;25093;1315;3027226;-65
2022/07/04 09:05:15;;;;;;;11.00;4.20;;;;;;;28.83;34.70;99485.52;25055;1313;3048083;-63
2022/07/04 09:07:44;;;;;;;9.50;4.00;;;;;;;28.98;34.72;99475.04;25103;1313;3026413;-63
2022/07/04 09:10:14;;;;;;;6.50;3.50;;;;;;;29.16;34.70;99477.77;25097;1315;3027251;-65
2022/07/04 09:13:09;;;;;;;6.10;3.70;;;;;;;29.34;33.62;99480.84;25177;1313;3050751;-66
2022/07/04 09:15:46;;;;;;;6.90;3.40;;;;;;;29.38;33.05;99483.89;25148;1313;3026741;-65
2022/07/04 09:18:21;;;;;;;6.70;3.40;;;;;;;29.62;32.96;99476.34;25059;1312;3054618;-66
2022/07/04 09:20:51;;;;;;;11.50;3.90;;;;;;;29.86;32.10;99474.13;25130;1312;3055057;-67
2022/07/04 09:23:25;;;;;;;5.50;3.90;;;;;;;30.02;32.16;99477.67;25122;1313;3026483;-63
2022/07/04 09:26:17;;;;;;;9.10;4.00;;;;;;;30.25;31.86;99479.61;25147;1313;3055870;-65
2022/07/04 09:28:58;;;;;;;6.30;3.30;;;;;;;30.25;30.75;99482.41;25138;1318;3053369;-66
2022/07/04 09:31:29;;;;;;;6.70;3.40;;;;;;;30.15;30.64;99481.86;25116;1315;3071460;-64
2022/07/04 09:33:59;;;;;;;8.50;3.50;;;;;;;30.10;30.42;99488.08;25179;1313;3028722;-67
2022/07/04 09:36:33;;;;;;;7.40;3.70;;;;;;;29.99;30.59;99487.08;25151;1313;3026331;-64
2022/07/04 09:39:20;;;;;;;7.80;3.90;;;;;;;29.88;30.59;99484.05;25109;1313;3055400;-62
2022/07/04 09:42:00;;;;;;;4.90;3.60;;;;;;;29.96;30.59;99478.63;25119;1313;3057497;-63
2022/07/04 09:44:48;;;;;;;7.60;3.40;;;;;;;30.18;30.81;99474.25;25124;1315;3051083;-63
2022/07/04 09:47:27;;;;;;;7.80;3.70;;;;;;;30.47;31.02;99479.27;25063;1315;3053218;-66
2022/07/04 09:50:08;;;;;;;15.60;3.90;;;;;;;30.58;30.56;99478.08;25187;1313;3051223;-68
2022/07/04 09:53:04;;;;;;;10.60;3.60;;;;;;;30.78;30.27;99476.34;25058;1313;3068358;-64
2022/07/04 09:55:33;;;;;;;10.10;3.30;;;;;;;31.01;30.36;99474.23;25083;1313;3052882;-63
2022/07/04 09:58:04;;;;;;;7.20;3.40;;;;;;;31.20;30.10;99471.77;25107;1313;3026974;-65
2022/07/04 10:00:41;;;;;;;7.80;4.00;;;;;;;31.38;29.76;99467.52;25096;1313;3026136;-66
2022/07/04 10:03:22;;;;;;;7.70;3.50;;;;;;;31.48;29.72;99470.36;25051;1313;3056196;-63
2022/07/04 10:06:18;;;;;;;7.70;3.30;;;;;;;31.34;29.91;99471.33;25096;1313;3052473;-66
2022/07/04 10:08:47;;;;;;;8.80;3.50;;;;;;;31.15;29.99;99468.87;25148;1315;3055580;-65
2022/07/04 10:11:18;;;;;;;9.70;3.90;;;;;;;31.33;29.58;99461.70;25096;1312;3029658;-68
2022/07/04 10:13:47;;;;;;;5.90;3.50;;;;;;;31.34;29.93;99461.20;25099;1313;3049711;-64
2022/07/04 10:16:16;;;;;;;6.80;4.10;;;;;;;31.53;29.60;99465.94;25075;1315;3026703;-66
2022/07/04 10:18:45;;;;;;;11.50;3.60;;;;;;;31.50;29.01;99464.60;25130;1313;3058866;-64
2022/07/04 10:21:14;;;;;;;6.30;3.80;;;;;;;31.71;28.58;99453.71;25072;1316;3026276;-65
2022/07/04 10:23:44;;;;;;;9.30;3.90;;;;;;;31.74;28.72;99449.66;25086;1313;3026740;-69
2022/07/04 10:26:12;;;;;;;5.80;3.80;;;;;;;31.71;29.07;99451.13;25079;1313;3060476;-63
2022/07/04 10:28:41;;;;;;;5.20;3.40;;;;;;;31.74;28.68;99447.98;25054;1316;3026392;-65
2022/07/04 10:31:12;;;;;;;5.90;3.60;;;;;;;31.58;28.96;99443.70;25095;1312;3053185;-67
2022/07/04 10:33:43;;;;;;;8.10;3.80;;;;;;;31.38;29.34;99443.51;25058;1318;3026868;-67
2022/07/04 10:36:20;;;;;;;9.40;3.60;;;;;;;31.26;29.36;99443.88;25087;1313;3028633;-64
2022/07/04 10:38:55;;;;;;;5.20;4.00;;;;;;;31.14;29.94;99434.28;25146;1313;3053807;-68
2022/07/04 10:41:24;;;;;;;6.80;3.50;;;;;;;31.02;29.96;99432.40;25158;1313;3053589;-66
2022/07/04 10:44:00;;;;;;;9.90;3.80;;;;;;;31.34;29.63;99428.08;25068;1313;3026109;-62
2022/07/04 10:46:49;;;;;;;6.30;3.50;;;;;;;31.52;29.24;99432.80;25127;1315;3048875;-64
2022/07/04 10:49:20;;;;;;;7.50;4.20;;;;;;;31.50;29.07;99430.02;25128;1313;3052669;-64
2022/07/04 10:52:01;;;;;;;8.20;3.90;;;;;;;31.65;28.97;99435.01;25163;1313;3026391;-68
2022/07/04 10:54:33;;;;;;;8.00;4.20;;;;;;;31.83;28.54;99431.14;25143;1315;3056644;-67
2022/07/04 10:57:19;;;;;;;7.60;3.80;;;;;;;31.60;28.81;99430.95;25153;1313;3026800;-71
2022/07/04 10:59:55;;;;;;;8.30;3.90;;;;;;;31.91;28.59;99424.18;25155;1313;3052191;-68
2022/07/04 11:02:34;;;;;;;9.00;4.00;;;;;;;32.13;28.71;99417.42;25123;1315;3050679;-68
2022/07/04 11:05:06;;;;;;;6.60;4.20;;;;;;;32.26;28.73;99414.30;25099;1315;3071178;-69
2022/07/04 11:07:37;;;;;;;9.40;3.60;;;;;;;32.51;27.93;99414.84;25125;1315;3052226;-67
2022/07/04 11:10:12;;;;;;;8.40;4.00;;;;;;;32.72;28.28;99410.54;25095;1315;3026506;-69
2022/07/04 11:12:54;;;;;;;6.10;3.50;;;;;;;32.97;27.72;99405.87;25131;1315;3071076;-69
2022/07/04 11:15:56;;;;;;;6.10;3.30;;;;;;;32.94;27.56;99402.65;25136;1315;3052257;-66
2022/07/04 11:18:25;;;;;;;6.70;3.70;;;;;;;32.93;27.75;99402.35;25090;1315;3052673;-68
2022/07/04 11:20:54;;;;;;;4.00;3.50;;;;;;;33.01;27.19;99399.73;25137;1315;3028550;-71
2022/07/04 11:23:24;;;;;;;5.70;3.70;;;;;;;32.85;26.91;99403.47;25151;1317;3052031;-67
2022/07/04 11:25:56;;;;;;;7.90;3.60;;;;;;;32.77;26.70;99405.63;25162;1315;3026496;-66
2022/07/04 11:28:32;;;;;;;6.20;4.10;;;;;;;32.89;26.56;99400.93;25101;1315;3028694;-70
2022/07/04 11:31:01;;;;;;;7.50;4.40;;;;;;;33.10;26.11;99400.19;25127;1315;3056271;-68
2022/07/04 11:33:32;;;;;;;4.30;3.50;;;;;;;33.26;26.02;99394.98;25193;1314;3026717;-68
2022/07/04 11:36:05;;;;;;;9.80;4.00;;;;;;;33.39;26.00;99388.86;25207;1315;3026407;-69
2022/07/04 11:38:56;;;;;;;8.60;4.00;;;;;;;33.52;25.73;99391.05;25238;1313;3051502;-69
2022/07/04 11:47:25;;;;;;;9.40;3.70;;;;;;;33.47;26.02;99384.78;25291;1315;3052384;-70
2022/07/04 11:49:55;;;;;;;8.60;3.60;;;;;;;33.69;25.31;99388.13;25212;1313;3029299;-65
2022/07/04 11:52:26;;;;;;;4.60;3.20;;;;;;;33.81;25.18;99382.73;25143;1313;3027404;-68